createdAt,value
2018-09-24T00:01:08.893Z,3.00
2018-09-24T00:03:35.735Z,2.90
2018-09-24T00:06:02.474Z,2.90
2018-09-24T00:08:29.121Z,3.00
2018-09-24T00:10:55.946Z,2.90
2018-09-24T00:13:22.697Z,2.90
2018-09-24T00:15:49.438Z,2.90
2018-09-24T00:18:16.177Z,2.90
2018-09-24T00:20:42.916Z,2.90
2018-09-24T00:23:09.646Z,2.90
2018-09-24T00:25:37.428Z,2.80
2018-09-24T00:28:04.163Z,2.80
2018-09-24T00:30:30.878Z,2.90
2018-09-24T00:32:58.667Z,2.90
2018-09-24T00:35:28.275Z,2.80
2018-09-24T00:37:55.012Z,2.80
2018-09-24T00:40:21.760Z,2.90
2018-09-24T00:42:48.496Z,2.80
2018-09-24T00:45:15.237Z,2.90
2018-09-24T00:47:42.160Z,2.80
2018-09-24T00:50:09.739Z,2.80
2018-09-24T00:52:36.471Z,2.70
2018-09-24T00:55:03.427Z,2.70
2018-09-24T00:57:30.164Z,2.60
2018-09-24T00:59:57.113Z,2.60
2018-09-24T01:02:23.825Z,2.50
2018-09-24T01:04:50.593Z,2.50
2018-09-24T01:07:17.435Z,2.60
2018-09-24T01:09:44.173Z,2.60
2018-09-24T01:12:10.888Z,2.60
2018-09-24T01:14:38.348Z,2.70
2018-09-24T01:17:05.828Z,2.60
2018-09-24T01:19:32.696Z,2.60
2018-09-24T01:22:00.231Z,2.50
2018-09-24T01:24:26.971Z,2.50
2018-09-24T01:26:53.713Z,2.40
2018-09-24T01:29:20.456Z,2.40
2018-09-24T01:31:47.196Z,2.30
2018-09-24T01:34:13.930Z,2.20
2018-09-24T01:36:40.777Z,2.20
2018-09-24T01:39:07.540Z,2.10
2018-09-24T01:41:34.257Z,2.10
2018-09-24T01:44:01.178Z,2.00
2018-09-24T01:46:28.662Z,1.90
2018-09-24T01:48:55.372Z,1.80
2018-09-24T01:51:22.932Z,1.80
2018-09-24T01:53:50.416Z,1.70
2018-09-24T01:56:17.155Z,1.70
2018-09-24T01:58:43.896Z,1.70
2018-09-24T02:01:10.643Z,1.60
2018-09-24T02:03:37.376Z,1.60
2018-09-24T02:06:04.117Z,1.60
2018-09-24T02:08:30.857Z,1.60
2018-09-24T02:10:57.597Z,1.60
2018-09-24T02:13:24.338Z,1.60
2018-09-24T02:15:51.081Z,1.70
2018-09-24T02:18:17.817Z,1.70
2018-09-24T02:20:44.786Z,1.60
2018-09-24T02:23:12.221Z,1.60
2018-09-24T02:25:39.090Z,1.60
2018-09-24T02:28:05.908Z,1.70
2018-09-24T02:30:32.649Z,1.60
2018-09-24T02:32:59.491Z,1.60
2018-09-24T02:35:26.437Z,1.60
2018-09-24T02:37:53.175Z,1.60
2018-09-24T02:40:20.006Z,1.60
2018-09-24T02:42:46.758Z,1.50
2018-09-24T02:45:13.606Z,1.50
2018-09-24T02:47:40.321Z,1.60
2018-09-24T02:50:07.781Z,1.50
2018-09-24T02:52:34.617Z,1.40
2018-09-24T02:55:02.187Z,1.50
2018-09-24T02:57:29.049Z,1.50
2018-09-24T02:59:55.786Z,1.60
2018-09-24T03:02:22.522Z,1.50
2018-09-24T03:04:49.367Z,1.60
2018-09-24T03:07:16.108Z,1.60
2018-09-24T03:09:42.926Z,1.60
2018-09-24T03:12:09.692Z,1.60
2018-09-24T03:14:36.412Z,1.60
2018-09-24T03:17:03.993Z,1.50
2018-09-24T03:19:30.731Z,1.50
2018-09-24T03:21:57.779Z,1.50
2018-09-24T03:24:24.518Z,1.40
2018-09-24T03:26:51.258Z,1.50
2018-09-24T03:29:18.105Z,1.50
2018-09-24T03:31:44.843Z,1.40
2018-09-24T03:34:11.685Z,1.40
2018-09-24T03:36:38.632Z,1.40
2018-09-24T03:39:05.477Z,1.30
2018-09-24T03:41:32.213Z,1.40
2018-09-24T03:43:58.951Z,1.30
2018-09-24T03:46:25.798Z,1.40
2018-09-24T03:48:52.537Z,1.40
2018-09-24T03:51:19.363Z,1.40
2018-09-24T03:53:46.221Z,1.40
2018-09-24T03:56:13.678Z,1.50
2018-09-24T03:58:40.420Z,1.40
2018-09-24T04:01:07.129Z,1.40
2018-09-24T04:03:34.617Z,1.40
2018-09-24T04:06:07.498Z,1.40
2018-09-24T04:08:40.280Z,1.40
2018-09-24T04:11:13.165Z,1.30
2018-09-24T04:13:45.926Z,1.30
2018-09-24T04:16:19.651Z,1.30
2018-09-24T04:18:52.432Z,1.30
2018-09-24T04:21:25.322Z,1.30
2018-09-24T04:23:58.303Z,1.30
2018-09-24T04:26:31.085Z,1.30
2018-09-24T04:29:03.969Z,1.30
2018-09-24T04:31:36.688Z,1.30
2018-09-24T04:34:09.618Z,1.40
2018-09-24T04:36:43.112Z,1.40
2018-09-24T04:39:16.435Z,1.40
2018-09-24T04:41:49.213Z,1.30
2018-09-24T04:44:22.008Z,1.40
2018-09-24T04:46:54.778Z,1.40
2018-09-24T04:49:27.456Z,1.40
2018-09-24T04:52:00.242Z,1.50
2018-09-24T04:54:33.225Z,1.50
2018-09-24T04:57:06.216Z,1.50
2018-09-24T04:59:38.893Z,1.60
2018-09-24T05:02:11.672Z,1.60
2018-09-24T05:04:44.581Z,1.70
2018-09-24T05:07:17.440Z,1.70
2018-09-24T05:09:50.331Z,1.70
2018-09-24T05:12:23.210Z,1.80
2018-09-24T05:14:55.995Z,1.80
2018-09-24T05:17:28.982Z,1.90
2018-09-24T05:20:01.968Z,1.90
2018-09-24T05:22:34.850Z,2.00
2018-09-24T05:25:07.715Z,2.10
2018-09-24T05:27:40.517Z,2.10
2018-09-24T05:30:13.299Z,2.20
2018-09-24T05:32:46.086Z,2.20
2018-09-24T05:35:18.966Z,2.20
2018-09-24T05:37:51.644Z,2.30
2018-09-24T05:40:24.634Z,2.40
2018-09-24T05:42:57.516Z,2.40
2018-09-24T05:45:30.297Z,2.50
2018-09-24T05:48:03.196Z,2.50
2018-09-24T05:50:36.169Z,2.70
2018-09-24T05:53:09.131Z,2.70
2018-09-24T05:55:41.939Z,2.80
2018-09-24T05:58:14.808Z,2.90
2018-09-24T06:00:47.708Z,3.00
2018-09-24T06:03:20.386Z,3.40
2018-09-24T06:05:53.375Z,3.40
2018-09-24T06:08:26.154Z,3.50
2018-09-24T06:10:59.041Z,3.60
2018-09-24T06:13:31.823Z,3.60
2018-09-24T06:16:04.606Z,3.60
2018-09-24T06:18:37.385Z,3.80
2018-09-24T06:21:10.168Z,3.90
2018-09-24T06:23:43.052Z,3.90
2018-09-24T06:26:15.832Z,4.00
2018-09-24T06:28:49.435Z,4.20
2018-09-24T06:31:22.194Z,4.20
2018-09-24T06:33:54.998Z,4.30
2018-09-24T06:36:27.885Z,4.40
2018-09-24T06:39:00.558Z,4.50
2018-09-24T06:41:33.242Z,4.60
2018-09-24T06:44:06.231Z,4.80
2018-09-24T06:46:39.093Z,4.90
2018-09-24T06:49:11.994Z,5.40
2018-09-24T06:51:44.881Z,6.20
2018-09-24T06:54:17.764Z,6.60
2018-09-24T06:56:50.516Z,6.70
2018-09-24T06:59:23.450Z,6.60
2018-09-24T07:01:56.319Z,6.80
2018-09-24T07:04:29.201Z,7.50
2018-09-24T07:07:01.981Z,8.70
2018-09-24T07:09:34.835Z,9.60
2018-09-24T07:12:07.547Z,10.30
2018-09-24T07:14:40.530Z,10.90
2018-09-24T07:17:13.212Z,10.60
2018-09-24T07:19:46.197Z,10.40
2018-09-24T07:22:19.084Z,10.70
2018-09-24T07:24:51.965Z,11.90
2018-09-24T07:27:24.749Z,12.40
2018-09-24T07:29:58.556Z,12.90
2018-09-24T07:32:31.441Z,12.80
2018-09-24T07:35:04.322Z,12.30
2018-09-24T07:37:37.411Z,11.50
2018-09-24T07:40:10.401Z,10.60
2018-09-24T07:42:43.284Z,10.20
2018-09-24T07:45:16.006Z,9.70
2018-09-24T07:47:49.413Z,11.60
2018-09-24T07:50:23.092Z,12.20
2018-09-24T07:52:56.253Z,12.20
2018-09-24T07:55:29.332Z,12.80
2018-09-24T07:58:02.835Z,12.80
2018-09-24T08:00:35.726Z,12.70
2018-09-24T08:03:08.599Z,12.20
2018-09-24T08:05:41.494Z,11.80
2018-09-24T08:08:14.157Z,11.10
2018-09-24T08:10:47.065Z,10.80
2018-09-24T08:13:20.096Z,10.40
2018-09-24T08:15:52.926Z,9.90
2018-09-24T08:18:25.710Z,9.80
2018-09-24T08:20:58.498Z,9.60
2018-09-24T08:23:31.313Z,9.50
2018-09-24T08:26:04.238Z,9.50
2018-09-24T08:28:37.196Z,9.80
2018-09-24T08:31:10.214Z,10.20
2018-09-24T08:33:42.915Z,10.40
2018-09-24T08:36:16.009Z,10.50
2018-09-24T08:38:48.888Z,10.60
2018-09-24T08:41:21.978Z,10.50
2018-09-24T08:43:54.633Z,10.30
2018-09-24T08:46:27.443Z,10.40
2018-09-24T08:49:00.145Z,10.60
2018-09-24T08:51:33.002Z,11.20
2018-09-24T08:54:05.787Z,11.70
2018-09-24T08:56:38.706Z,12.40
2018-09-24T08:59:11.451Z,13.00
2018-09-24T09:01:44.743Z,12.80
2018-09-24T09:04:17.527Z,13.30
2018-09-24T09:06:50.388Z,13.50
2018-09-24T09:09:23.191Z,13.40
2018-09-24T09:11:56.383Z,13.70
2018-09-24T09:14:29.164Z,13.30
2018-09-24T09:17:02.049Z,13.50
2018-09-24T09:19:34.809Z,13.00
2018-09-24T09:22:07.511Z,12.80
2018-09-24T09:24:40.265Z,12.80
2018-09-24T09:27:13.074Z,12.30
2018-09-24T09:29:46.166Z,12.60
2018-09-24T09:32:19.056Z,12.70
2018-09-24T09:34:51.931Z,12.80
2018-09-24T09:37:24.671Z,12.80
2018-09-24T09:39:58.110Z,12.50
2018-09-24T09:42:46.150Z,12.50
2018-09-24T09:45:18.910Z,12.60
2018-09-24T09:47:51.920Z,12.40
2018-09-24T09:50:24.665Z,12.30
2018-09-24T09:52:58.277Z,12.30
2018-09-24T09:55:31.289Z,12.30
2018-09-24T09:58:04.053Z,12.50
2018-09-24T10:00:36.838Z,12.60
2018-09-24T10:03:09.713Z,12.60
2018-09-24T10:05:42.518Z,12.50
2018-09-24T10:08:15.588Z,12.60
2018-09-24T10:10:48.491Z,12.50
2018-09-24T10:13:21.381Z,12.50
2018-09-24T10:15:54.363Z,12.30
2018-09-24T10:18:27.350Z,12.30
2018-09-24T10:21:00.131Z,12.50
2018-09-24T10:23:33.322Z,12.60
2018-09-24T10:26:06.206Z,12.70
2018-09-24T10:28:39.195Z,12.90
2018-09-24T10:31:11.953Z,12.80
2018-09-24T10:33:44.756Z,12.90
2018-09-24T10:36:17.644Z,12.90
2018-09-24T10:38:50.317Z,13.00
2018-09-24T10:41:23.310Z,13.10
2018-09-24T10:43:55.997Z,13.10
2018-09-24T10:46:28.872Z,13.00
2018-09-24T10:49:01.640Z,13.10
2018-09-24T10:51:34.640Z,12.90
2018-09-24T10:54:07.400Z,13.00
2018-09-24T10:56:40.178Z,13.10
2018-09-24T10:59:12.975Z,13.20
2018-09-24T11:01:45.745Z,13.40
2018-09-24T11:04:18.754Z,13.30
2018-09-24T11:06:51.514Z,13.30
2018-09-24T11:09:24.397Z,13.30
2018-09-24T11:11:57.203Z,13.00
2018-09-24T11:14:29.984Z,12.90
2018-09-24T11:17:02.833Z,13.00
2018-09-24T11:19:35.855Z,13.10
2018-09-24T11:22:08.789Z,13.00
2018-09-24T11:24:41.523Z,13.20
2018-09-24T11:27:14.354Z,13.20
2018-09-24T11:29:47.097Z,13.40
2018-09-24T11:32:20.553Z,13.40
2018-09-24T11:34:53.341Z,13.30
2018-09-24T11:37:26.439Z,13.40
2018-09-24T11:39:59.442Z,13.50
2018-09-24T11:42:32.408Z,13.50
2018-09-24T11:45:05.288Z,13.10
2018-09-24T11:47:38.177Z,12.80
2018-09-24T11:50:11.288Z,12.50
2018-09-24T11:52:58.900Z,12.60
2018-09-24T11:55:31.821Z,12.80
2018-09-24T11:58:04.661Z,12.90
2018-09-24T12:00:37.573Z,13.10
2018-09-24T12:03:10.280Z,13.10
2018-09-24T12:05:43.340Z,13.00
2018-09-24T12:08:16.093Z,12.50
2018-09-24T12:10:49.110Z,12.30
2018-09-24T12:13:22.096Z,12.30
2018-09-24T12:15:54.878Z,12.60
2018-09-24T12:18:27.759Z,12.70
2018-09-24T12:21:00.674Z,12.80
2018-09-24T12:23:33.630Z,12.90
2018-09-24T12:26:06.593Z,12.90
2018-09-24T12:28:39.377Z,13.00
2018-09-24T12:31:12.488Z,13.00
2018-09-24T12:33:45.271Z,12.90
2018-09-24T12:36:19.493Z,12.80
2018-09-24T12:38:52.316Z,12.80
2018-09-24T12:41:25.083Z,12.70
2018-09-24T12:43:58.068Z,12.90
2018-09-24T12:46:31.040Z,12.70
2018-09-24T12:49:04.056Z,12.10
2018-09-24T12:51:37.081Z,12.10
2018-09-24T12:54:10.050Z,11.90
2018-09-24T12:56:43.107Z,12.10
2018-09-24T12:59:15.821Z,12.40
2018-09-24T13:01:48.707Z,12.80
2018-09-24T13:04:21.522Z,12.90
2018-09-24T13:06:54.280Z,12.90
2018-09-24T13:09:27.212Z,12.70
2018-09-24T13:12:00.009Z,12.60
2018-09-24T13:14:32.860Z,12.70
2018-09-24T13:17:05.749Z,12.50
2018-09-24T13:19:38.750Z,12.20
2018-09-24T13:22:12.453Z,12.20
2018-09-24T13:24:45.172Z,12.20
2018-09-24T13:27:18.603Z,12.10
2018-09-24T13:29:51.371Z,12.00
2018-09-24T13:32:24.403Z,12.10
2018-09-24T13:34:57.390Z,12.20
2018-09-24T13:37:30.385Z,12.20
2018-09-24T13:40:03.417Z,12.40
2018-09-24T13:42:36.114Z,12.40
2018-09-24T13:45:08.962Z,12.30
2018-09-24T13:47:41.958Z,12.40
2018-09-24T13:50:15.033Z,12.30
2018-09-24T13:52:48.111Z,12.40
2018-09-24T13:55:21.137Z,12.60
2018-09-24T13:57:53.847Z,12.50
2018-09-24T14:00:27.407Z,12.30
2018-09-24T14:03:01.159Z,12.40
2018-09-24T14:05:34.010Z,12.40
2018-09-24T14:08:06.735Z,12.70
2018-09-24T14:10:40.065Z,12.70
2018-09-24T14:13:12.910Z,12.90
2018-09-24T14:15:45.852Z,12.90
2018-09-24T14:18:18.598Z,12.90
2018-09-24T14:20:51.492Z,12.80
2018-09-24T14:23:24.543Z,12.80
2018-09-24T14:25:57.457Z,12.70
2018-09-24T14:28:30.161Z,12.80
2018-09-24T14:31:03.085Z,12.80
2018-09-24T14:33:35.972Z,12.80
2018-09-24T14:36:09.116Z,12.70
2018-09-24T14:38:41.942Z,12.60
2018-09-24T14:41:14.701Z,12.50
2018-09-24T14:43:48.429Z,12.10
2018-09-24T14:46:21.381Z,12.00
2018-09-24T14:48:54.301Z,11.90
2018-09-24T14:51:27.554Z,11.70
2018-09-24T14:54:00.553Z,11.50
2018-09-24T14:56:33.304Z,11.40
2018-09-24T14:59:06.432Z,11.40
2018-09-24T15:01:39.320Z,11.30
2018-09-24T15:04:12.270Z,11.30
2018-09-24T15:06:45.132Z,11.10
2018-09-24T15:09:18.039Z,11.20
2018-09-24T15:11:51.004Z,11.10
2018-09-24T15:14:23.905Z,11.00
2018-09-24T15:16:57.688Z,10.80
2018-09-24T15:19:30.401Z,10.90
2018-09-24T15:22:03.506Z,10.90
2018-09-24T15:24:36.596Z,11.00
2018-09-24T15:27:09.448Z,11.00
2018-09-24T15:29:42.981Z,10.90
2018-09-24T15:32:16.068Z,10.90
2018-09-24T15:34:49.093Z,10.80
2018-09-24T15:37:22.398Z,10.80
2018-09-24T15:39:56.325Z,10.80
2018-09-24T15:42:30.312Z,10.90
2018-09-24T15:45:03.247Z,10.80
2018-09-24T15:47:36.283Z,10.90
2018-09-24T15:50:09.298Z,10.80
2018-09-24T15:52:43.156Z,10.70
2018-09-24T15:55:16.166Z,10.70
2018-09-24T15:57:48.950Z,10.60
2018-09-24T16:00:21.721Z,10.40
2018-09-24T16:02:54.684Z,10.20
2018-09-24T16:05:28.385Z,10.10
2018-09-24T16:08:01.341Z,10.10
2018-09-24T16:10:34.897Z,10.00
2018-09-24T16:13:07.773Z,10.00
2018-09-24T16:15:40.672Z,9.90
2018-09-24T16:18:13.917Z,9.70
2018-09-24T16:20:47.137Z,9.70
2018-09-24T16:23:20.220Z,9.60
2018-09-24T16:25:52.955Z,9.60
2018-09-24T16:28:31.879Z,9.60
2018-09-24T16:31:04.837Z,9.60
2018-09-24T16:33:37.694Z,9.60
2018-09-24T16:36:10.585Z,9.50
2018-09-24T16:38:43.648Z,9.40
2018-09-24T16:41:16.636Z,9.40
2018-09-24T16:43:49.701Z,9.40
2018-09-24T16:46:22.517Z,9.30
2018-09-24T16:48:55.378Z,9.20
2018-09-24T16:51:28.349Z,9.20
2018-09-24T16:54:01.124Z,9.10
2018-09-24T16:56:34.697Z,8.90
2018-09-24T16:59:07.679Z,8.90
2018-09-24T17:01:40.681Z,8.80
2018-09-24T17:04:13.534Z,8.80
2018-09-24T17:06:46.512Z,8.70
2018-09-24T17:09:20.090Z,8.70
2018-09-24T17:11:53.803Z,8.60
2018-09-24T17:14:26.596Z,8.60
2018-09-24T17:17:00.281Z,8.50
2018-09-24T17:19:33.132Z,8.50
2018-09-24T17:22:06.067Z,8.50
2018-09-24T17:24:39.161Z,8.50
2018-09-24T17:27:11.969Z,8.50
2018-09-24T17:29:44.868Z,8.40
2018-09-24T17:32:17.576Z,8.40
2018-09-24T17:34:50.411Z,8.40
2018-09-24T17:37:23.442Z,8.40
2018-09-24T17:39:56.377Z,8.40
2018-09-24T17:42:30.098Z,8.50
2018-09-24T17:45:02.987Z,8.40
2018-09-24T17:47:35.861Z,8.50
2018-09-24T17:50:08.721Z,8.50
2018-09-24T17:52:41.617Z,8.50
2018-09-24T17:55:14.530Z,8.50
2018-09-24T17:57:47.429Z,8.40
2018-09-24T18:00:21.708Z,8.30
2018-09-24T18:02:54.789Z,8.30
2018-09-24T18:05:27.540Z,8.20
2018-09-24T18:08:01.125Z,8.20
2018-09-24T18:10:34.013Z,8.10
2018-09-24T18:13:07.069Z,8.10
2018-09-24T18:15:39.997Z,8.10
2018-09-24T18:18:13.628Z,8.00
2018-09-24T18:20:46.500Z,8.00
2018-09-24T18:23:20.248Z,8.00
2018-09-24T18:25:53.171Z,7.90
2018-09-24T18:28:25.968Z,7.90
2018-09-24T18:30:59.501Z,7.60
2018-09-24T18:33:32.545Z,7.60
2018-09-24T18:36:05.500Z,7.40
2018-09-24T18:38:38.368Z,7.30
2018-09-24T18:41:11.252Z,7.20
2018-09-24T18:43:44.950Z,7.00
2018-09-24T18:46:18.542Z,6.90
2018-09-24T18:48:51.369Z,6.80
2018-09-24T18:51:24.194Z,6.80
2018-09-24T18:53:57.020Z,6.70
2018-09-24T18:56:29.898Z,6.60
2018-09-24T18:59:03.103Z,6.60
2018-09-24T19:01:36.030Z,6.40
2018-09-24T19:04:09.033Z,6.40
2018-09-24T19:06:42.244Z,6.30
2018-09-24T19:09:15.693Z,6.20
2018-09-24T19:11:49.392Z,6.10
2018-09-24T19:14:22.248Z,6.10
2018-09-24T19:16:55.881Z,6.00
2018-09-24T19:19:29.063Z,6.00
2018-09-24T19:22:02.580Z,5.80
2018-09-24T19:24:35.653Z,5.80
2018-09-24T19:27:08.532Z,5.70
2018-09-24T19:29:42.249Z,5.60
2018-09-24T19:32:15.117Z,5.50
2018-09-24T19:34:47.907Z,5.50
2018-09-24T19:37:20.877Z,5.40
2018-09-24T19:39:53.738Z,5.40
2018-09-24T19:42:26.662Z,5.40
2018-09-24T19:44:59.511Z,5.40
2018-09-24T19:47:32.472Z,5.40
2018-09-24T19:50:05.365Z,5.30
2018-09-24T19:52:38.281Z,5.40
2018-09-24T19:55:11.148Z,5.30
2018-09-24T19:57:44.053Z,5.20
2018-09-24T20:00:17.692Z,5.10
2018-09-24T20:02:51.035Z,5.10
2018-09-24T20:05:23.801Z,5.00
2018-09-24T20:07:56.718Z,5.00
2018-09-24T20:10:29.789Z,5.00
2018-09-24T20:13:02.515Z,4.90
2018-09-24T20:15:35.399Z,4.90
2018-09-24T20:18:08.746Z,4.90
2018-09-24T20:20:41.678Z,4.80
2018-09-24T20:23:14.526Z,4.80
2018-09-24T20:25:47.203Z,4.80
2018-09-24T20:28:19.821Z,4.70
2018-09-24T20:30:52.638Z,4.70
2018-09-24T20:33:26.439Z,4.60
2018-09-24T20:35:59.314Z,4.60
2018-09-24T20:38:32.391Z,4.60
2018-09-24T20:41:05.842Z,4.60
2018-09-24T20:43:38.991Z,4.60
2018-09-24T20:46:12.466Z,4.70
2018-09-24T20:48:46.234Z,4.60
2018-09-24T20:51:19.150Z,4.60
2018-09-24T20:53:51.949Z,4.60
2018-09-24T20:56:25.452Z,4.70
2018-09-24T20:58:58.265Z,4.70
2018-09-24T21:01:31.256Z,4.70
2018-09-24T21:04:04.121Z,4.80
2018-09-24T21:06:37.043Z,4.80
2018-09-24T21:09:09.884Z,4.90
2018-09-24T21:11:43.131Z,5.00
2018-09-24T21:14:16.676Z,4.90
2018-09-24T21:16:49.668Z,4.90
2018-09-24T21:19:22.244Z,4.90
2018-09-24T21:21:55.198Z,4.80
2018-09-24T21:24:27.991Z,4.70
2018-09-24T21:27:00.974Z,4.70
2018-09-24T21:29:33.803Z,4.70
2018-09-24T21:32:06.724Z,4.80
2018-09-24T21:34:39.588Z,4.80
2018-09-24T21:37:12.516Z,4.90
2018-09-24T21:39:45.565Z,4.90
2018-09-24T21:42:18.248Z,4.90
2018-09-24T21:44:51.235Z,4.80
2018-09-24T21:47:23.967Z,4.80
2018-09-24T21:49:56.701Z,4.80
2018-09-24T21:52:30.184Z,4.70
2018-09-24T21:55:03.045Z,4.70
2018-09-24T21:57:35.963Z,4.70
2018-09-24T22:00:08.687Z,4.60
2018-09-24T22:02:41.841Z,4.60
2018-09-24T22:05:14.653Z,4.50
2018-09-24T22:07:47.731Z,4.50
2018-09-24T22:10:20.512Z,4.50
2018-09-24T22:12:53.200Z,4.50
2018-09-24T22:15:26.050Z,4.50
2018-09-24T22:17:58.890Z,4.50
2018-09-24T22:20:31.829Z,4.40
2018-09-24T22:23:04.690Z,4.40
2018-09-24T22:25:37.639Z,4.40
2018-09-24T22:28:10.381Z,4.40
2018-09-24T22:30:43.116Z,4.40
2018-09-24T22:33:15.918Z,4.40
2018-09-24T22:35:48.778Z,4.40
2018-09-24T22:38:21.636Z,4.40
2018-09-24T22:40:55.194Z,4.30
2018-09-24T22:43:27.962Z,4.30
2018-09-24T22:46:00.747Z,4.30
2018-09-24T22:48:33.466Z,4.40
2018-09-24T22:51:07.954Z,4.40
2018-09-24T22:53:40.736Z,4.40
2018-09-24T22:56:13.606Z,4.40
2018-09-24T22:58:46.422Z,4.50
2018-09-24T23:01:19.344Z,4.50
2018-09-24T23:03:52.274Z,4.40
2018-09-24T23:06:25.117Z,4.50
2018-09-24T23:08:57.771Z,4.40
2018-09-24T23:11:31.428Z,4.50
2018-09-24T23:14:04.310Z,4.40
2018-09-24T23:16:37.187Z,4.40
2018-09-24T23:19:10.047Z,4.20
2018-09-24T23:21:42.760Z,4.20
2018-09-24T23:24:15.521Z,4.20
2018-09-24T23:26:48.345Z,4.10
2018-09-24T23:29:21.328Z,4.00
2018-09-24T23:31:53.929Z,3.90
2018-09-24T23:34:26.855Z,3.90
2018-09-24T23:36:59.655Z,3.90
2018-09-24T23:39:32.489Z,3.90
2018-09-24T23:42:05.336Z,3.80
2018-09-24T23:44:38.214Z,3.80
2018-09-24T23:47:11.037Z,3.70
2018-09-24T23:49:43.948Z,3.60
2018-09-24T23:52:16.695Z,3.60
2018-09-24T23:54:49.546Z,3.60
2018-09-24T23:57:22.379Z,3.60
2018-09-24T23:59:55.213Z,3.60
